Time;durP1;ratioP1;P1;durP2;ratioP2;P2;SDS_P1;SDS_P2;PMS_P1;PMS_P2;Temp;Humidity;BMP_temperature;BMP_pressure;BME280_temperature;BME280_humidity;BME280_pressure;Samples;Min_cycle;Max_cycle;Signal;HPM_P1;HPM_P2
2021/07/31 00:01:03;;;;;;;8.47;7.67;;;19.30;99.90;;;;;;5064080;28;20432;-56
2021/07/31 00:03:29;;;;;;;8.43;7.30;;;19.40;99.90;;;;;;5068119;28;20723;-56
2021/07/31 00:05:55;;;;;;;10.40;9.40;;;19.40;99.90;;;;;;5068628;28;20213;-55
2021/07/31 00:08:21;;;;;;;9.05;8.25;;;19.40;99.90;;;;;;5067836;28;20209;-57
2021/07/31 00:10:47;;;;;;;8.50;7.68;;;19.50;99.90;;;;;;5067651;28;20601;-56
2021/07/31 00:13:12;;;;;;;9.83;8.30;;;19.60;99.90;;;;;;5067712;28;20181;-57
2021/07/31 00:15:38;;;;;;;9.00;8.10;;;19.70;99.90;;;;;;5066767;28;20205;-56
2021/07/31 00:18:04;;;;;;;9.30;8.40;;;19.70;99.90;;;;;;5068982;28;20184;-57
2021/07/31 00:20:29;;;;;;;9.43;8.53;;;19.70;99.90;;;;;;5068053;28;20189;-57
2021/07/31 00:22:55;;;;;;;9.20;8.40;;;19.70;99.90;;;;;;5061378;28;20572;-56
2021/07/31 00:25:21;;;;;;;8.80;8.00;;;19.70;99.90;;;;;;5067386;28;21027;-57
2021/07/31 00:27:46;;;;;;;9.63;8.40;;;19.70;99.90;;;;;;5063177;28;20205;-56
2021/07/31 00:30:12;;;;;;;10.97;8.10;;;19.60;99.90;;;;;;5063155;28;20658;-57
2021/07/31 00:32:37;;;;;;;9.50;8.60;;;19.70;99.90;;;;;;5067959;28;20185;-57
2021/07/31 00:35:03;;;;;;;9.17;8.27;;;19.70;99.90;;;;;;5067572;28;20199;-57
2021/07/31 00:37:29;;;;;;;9.00;8.10;;;19.70;99.90;;;;;;5068402;28;20195;-57
2021/07/31 00:39:55;;;;;;;9.17;8.27;;;19.70;99.90;;;;;;5072399;28;20440;-58
2021/07/31 00:42:20;;;;;;;8.80;8.00;;;19.70;99.90;;;;;;5069241;28;20560;-57
2021/07/31 00:44:46;;;;;;;8.83;7.93;;;19.80;99.90;;;;;;5066290;28;20446;-57
2021/07/31 00:47:11;;;;;;;8.90;8.00;;;19.70;99.90;;;;;;5062289;28;20201;-57
2021/07/31 00:49:38;;;;;;;7.20;6.60;;;19.60;99.90;;;;;;5064896;28;20195;-57
2021/07/31 00:52:04;;;;;;;8.38;7.57;;;19.80;99.90;;;;;;5065897;28;20224;-57
2021/07/31 00:54:30;;;;;;;6.90;6.30;;;19.80;99.90;;;;;;5067340;28;20238;-58
2021/07/31 00:56:57;;;;;;;6.20;5.60;;;19.80;99.90;;;;;;5068467;28;20204;-57
2021/07/31 00:59:23;;;;;;;5.65;5.15;;;19.90;99.90;;;;;;5067957;28;20188;-57
2021/07/31 01:01:49;;;;;;;7.00;6.30;;;19.90;99.90;;;;;;5067976;28;20642;-58
2021/07/31 01:04:15;;;;;;;8.87;6.90;;;20.00;99.90;;;;;;5067741;28;20443;-57
2021/07/31 01:06:40;;;;;;;8.63;7.53;;;20.00;99.90;;;;;;5065409;28;20240;-57
2021/07/31 01:09:06;;;;;;;7.67;6.80;;;20.00;99.90;;;;;;5067256;28;20692;-58
2021/07/31 01:11:34;;;;;;;7.60;6.77;;;20.00;99.90;;;;;;5062503;28;20580;-57
2021/07/31 01:14:00;;;;;;;9.23;6.10;;;20.00;99.90;;;;;;5068264;28;20184;-58
2021/07/31 01:16:25;;;;;;;6.50;5.40;;;20.00;99.90;;;;;;5066360;28;20210;-58
2021/07/31 01:18:51;;;;;;;7.93;6.13;;;20.10;99.90;;;;;;5066911;28;20193;-57
2021/07/31 01:21:35;;;;;;;7.00;6.30;;;20.00;99.90;;;;;;5068083;28;20188;-57
2021/07/31 01:24:01;;;;;;;6.85;6.15;;;20.00;99.90;;;;;;5065629;28;20177;-58
2021/07/31 01:26:27;;;;;;;8.47;7.00;;;20.00;99.90;;;;;;5062128;28;20546;-58
2021/07/31 01:28:53;;;;;;;7.57;6.97;;;20.10;99.90;;;;;;5067344;28;20190;-57
2021/07/31 01:31:18;;;;;;;8.83;7.60;;;20.00;99.90;;;;;;5066850;28;20185;-57
2021/07/31 01:33:44;;;;;;;7.50;6.90;;;20.10;99.90;;;;;;5065946;28;20434;-58
2021/07/31 01:36:09;;;;;;;6.50;5.90;;;20.10;99.90;;;;;;5062143;28;20228;-58
2021/07/31 01:38:37;;;;;;;6.67;6.07;;;20.00;99.90;;;;;;5067600;28;20184;-59
2021/07/31 01:41:02;;;;;;;6.22;5.60;;;19.80;99.90;;;;;;5069364;28;20647;-58
2021/07/31 01:43:28;;;;;;;7.00;6.40;;;19.80;99.90;;;;;;5071061;28;20214;-58
2021/07/31 01:45:55;;;;;;;5.87;5.37;;;19.80;99.90;;;;;;5070832;28;20315;-59
2021/07/31 01:48:20;;;;;;;5.00;4.50;;;19.80;99.90;;;;;;5070735;28;20459;-58
2021/07/31 01:50:46;;;;;;;5.10;4.60;;;19.90;99.90;;;;;;5070177;28;20188;-58
2021/07/31 01:53:11;;;;;;;7.00;4.30;;;19.90;99.90;;;;;;5070895;28;20222;-57
2021/07/31 01:55:37;;;;;;;4.60;3.90;;;20.00;99.90;;;;;;5070888;28;20544;-57
2021/07/31 01:58:03;;;;;;;4.83;4.33;;;20.00;99.90;;;;;;5070702;28;20229;-58
2021/07/31 02:00:28;;;;;;;4.97;4.10;;;19.80;99.90;;;;;;5071472;28;20189;-58
2021/07/31 02:02:54;;;;;;;4.47;4.07;;;19.70;99.90;;;;;;5069569;28;20185;-58
2021/07/31 02:05:20;;;;;;;4.37;3.73;;;19.70;99.90;;;;;;5071451;28;20240;-58
2021/07/31 02:07:45;;;;;;;4.30;3.63;;;19.80;99.90;;;;;;5070400;28;20204;-57
2021/07/31 02:10:11;;;;;;;5.03;4.23;;;19.80;99.90;;;;;;5069191;28;20215;-58
2021/07/31 02:12:36;;;;;;;3.50;3.20;;;19.70;99.90;;;;;;5071131;28;20192;-58
2021/07/31 02:15:02;;;;;;;4.87;3.90;;;19.50;99.90;;;;;;5070304;28;20191;-58
2021/07/31 02:17:28;;;;;;;6.63;3.93;;;19.40;99.90;;;;;;5070669;28;20283;-58
2021/07/31 02:19:53;;;;;;;3.40;3.10;;;19.20;99.90;;;;;;5070487;28;20434;-58
2021/07/31 02:22:19;;;;;;;3.77;3.37;;;19.10;99.90;;;;;;5069878;28;20177;-58
2021/07/31 02:24:45;;;;;;;4.80;3.97;;;19.00;99.90;;;;;;5070449;28;20184;-57
2021/07/31 02:27:10;;;;;;;4.40;4.00;;;19.00;99.90;;;;;;5068471;28;20217;-58
2021/07/31 02:29:36;;;;;;;6.40;4.13;;;18.80;99.90;;;;;;5068883;28;20181;-58
2021/07/31 02:32:02;;;;;;;5.10;3.80;;;18.90;99.90;;;;;;5069871;28;20303;-58
2021/07/31 02:34:27;;;;;;;4.17;3.60;;;18.80;99.90;;;;;;5069592;28;20189;-58
2021/07/31 02:36:56;;;;;;;4.73;3.77;;;18.70;99.90;;;;;;5069385;28;20250;-58
2021/07/31 02:39:21;;;;;;;4.20;3.80;;;18.80;99.90;;;;;;5070967;28;20191;-58
2021/07/31 02:41:47;;;;;;;5.40;4.30;;;18.60;99.90;;;;;;5067232;28;20189;-58
2021/07/31 02:44:13;;;;;;;5.10;4.30;;;18.60;99.90;;;;;;5070252;28;20201;-58
2021/07/31 02:46:38;;;;;;;4.47;4.07;;;18.60;99.90;;;;;;5069533;28;20209;-58
2021/07/31 02:49:04;;;;;;;5.10;4.70;;;18.50;99.90;;;;;;5066724;28;20224;-58
2021/07/31 02:51:29;;;;;;;4.30;3.90;;;18.50;99.90;;;;;;5068719;28;20276;-58
2021/07/31 02:53:55;;;;;;;7.57;4.70;;;18.50;99.90;;;;;;5065551;28;20185;-57
2021/07/31 02:56:21;;;;;;;4.40;4.00;;;18.50;99.90;;;;;;5069731;28;20244;-58
2021/07/31 02:58:46;;;;;;;5.80;3.93;;;18.40;99.90;;;;;;5069345;28;20193;-57
2021/07/31 03:01:12;;;;;;;5.80;4.77;;;18.30;99.90;;;;;;5069675;28;20454;-58
2021/07/31 03:03:37;;;;;;;4.90;4.47;;;18.20;99.90;;;;;;5070068;28;20600;-58
2021/07/31 03:06:03;;;;;;;4.63;4.23;;;18.10;99.90;;;;;;5069630;28;20208;-58
2021/07/31 03:08:29;;;;;;;4.80;4.33;;;18.10;99.90;;;;;;5068731;28;20742;-58
2021/07/31 03:11:03;;;;;;;8.57;4.93;;;18.10;99.90;;;;;;5067006;28;20189;-58
2021/07/31 03:13:29;;;;;;;5.88;5.25;;;18.00;99.90;;;;;;5065353;28;20194;-58
2021/07/31 03:15:55;;;;;;;7.80;4.20;;;18.00;99.90;;;;;;5067336;28;20201;-58
2021/07/31 03:18:21;;;;;;;4.78;4.38;;;17.90;99.90;;;;;;5069812;28;20480;-57
2021/07/31 03:20:48;;;;;;;8.25;4.70;;;17.80;99.90;;;;;;5069365;28;20172;-58
2021/07/31 03:23:19;;;;;;;6.63;5.25;;;17.60;99.90;;;;;;5070542;28;20185;-58
2021/07/31 03:25:45;;;;;;;7.72;5.00;;;17.70;99.90;;;;;;5067661;28;20208;-57
2021/07/31 03:28:11;;;;;;;7.43;4.88;;;17.50;99.90;;;;;;5062026;28;20234;-58
2021/07/31 03:30:41;;;;;;;5.10;4.60;;;17.30;99.90;;;;;;5068263;28;20268;-58
2021/07/31 03:33:07;;;;;;;6.32;4.55;;;17.40;99.90;;;;;;5069084;28;20185;-58
2021/07/31 03:35:32;;;;;;;5.03;4.53;;;17.40;99.90;;;;;;5068982;28;20698;-58
2021/07/31 03:37:58;;;;;;;5.07;4.57;;;17.30;99.90;;;;;;5069181;28;20200;-58
2021/07/31 03:40:23;;;;;;;5.27;4.63;;;17.40;99.90;;;;;;5068630;28;20192;-58
2021/07/31 03:42:49;;;;;;;5.10;4.70;;;17.40;99.90;;;;;;5069508;28;20189;-58
2021/07/31 03:45:15;;;;;;;5.83;4.83;;;17.20;99.90;;;;;;5052301;28;20563;-57
2021/07/31 03:47:40;;;;;;;5.30;4.80;;;17.30;99.90;;;;;;5051515;28;20219;-58
2021/07/31 03:50:07;;;;;;;5.83;5.30;;;17.50;99.90;;;;;;5051905;28;20192;-58
2021/07/31 03:52:32;;;;;;;5.00;4.55;;;17.20;99.90;;;;;;5048673;28;20239;-57
2021/07/31 03:54:58;;;;;;;7.03;4.50;;;17.20;99.90;;;;;;5043473;28;20646;-57
2021/07/31 03:57:23;;;;;;;6.50;4.70;;;17.30;99.90;;;;;;5057482;28;20273;-58
2021/07/31 03:59:49;;;;;;;5.70;3.93;;;17.10;99.90;;;;;;5058320;28;20557;-57
2021/07/31 04:02:15;;;;;;;5.30;4.10;;;17.00;99.90;;;;;;5050795;28;20184;-57
2021/07/31 04:04:40;;;;;;;4.60;4.20;;;17.00;99.90;;;;;;5050692;28;20188;-58
2021/07/31 04:07:06;;;;;;;6.57;5.83;;;16.90;99.90;;;;;;5050696;28;20222;-58
2021/07/31 04:09:31;;;;;;;4.60;4.20;;;17.00;99.90;;;;;;5047271;28;20556;-58
2021/07/31 04:11:57;;;;;;;4.30;3.90;;;17.10;99.90;;;;;;5050956;28;20204;-57
2021/07/31 04:14:22;;;;;;;6.03;4.40;;;17.10;99.90;;;;;;5051804;28;20184;-58
2021/07/31 04:16:48;;;;;;;5.80;3.50;;;16.80;99.90;;;;;;5050924;28;20213;-58
2021/07/31 04:19:14;;;;;;;4.37;3.97;;;16.60;99.90;;;;;;5048509;28;20303;-64
2021/07/31 04:21:40;;;;;;;4.33;3.87;;;16.90;99.90;;;;;;5051240;28;20183;-63
2021/07/31 04:24:05;;;;;;;4.83;4.37;;;16.60;99.90;;;;;;5049326;28;20940;-56
2021/07/31 04:26:31;;;;;;;4.60;4.20;;;16.60;99.90;;;;;;5051293;28;20724;-56
2021/07/31 04:28:56;;;;;;;4.13;3.73;;;16.80;99.90;;;;;;5053843;28;20208;-56
2021/07/31 04:31:22;;;;;;;4.07;3.67;;;16.70;99.90;;;;;;5049986;28;20219;-56
2021/07/31 04:33:48;;;;;;;5.10;4.67;;;16.60;99.90;;;;;;5048509;28;20192;-56
2021/07/31 04:36:13;;;;;;;4.03;3.63;;;16.60;99.90;;;;;;5053823;28;20192;-56
2021/07/31 04:38:39;;;;;;;5.00;4.17;;;16.70;99.90;;;;;;5067920;28;20207;-57
2021/07/31 04:41:05;;;;;;;7.10;3.87;;;16.80;99.90;;;;;;5054133;28;20635;-57
2021/07/31 04:43:32;;;;;;;4.10;3.70;;;16.80;99.90;;;;;;5066073;28;20463;-57
2021/07/31 04:45:58;;;;;;;4.90;3.63;;;16.70;99.90;;;;;;5051016;28;20463;-57
2021/07/31 04:48:24;;;;;;;5.15;3.65;;;16.60;99.90;;;;;;5049145;28;20209;-57
2021/07/31 04:51:03;;;;;;;4.07;3.67;;;16.60;99.90;;;;;;5056734;28;20184;-56
2021/07/31 04:53:29;;;;;;;3.80;3.45;;;16.80;99.90;;;;;;5055260;28;20551;-58
2021/07/31 04:55:55;;;;;;;5.82;3.40;;;16.70;99.90;;;;;;5048525;28;20234;-58
2021/07/31 04:58:22;;;;;;;3.65;3.35;;;16.80;99.90;;;;;;5052551;28;20673;-57
2021/07/31 05:00:48;;;;;;;4.90;3.63;;;16.80;99.90;;;;;;5051542;28;20218;-58
2021/07/31 05:03:15;;;;;;;3.70;3.22;;;16.70;99.90;;;;;;5068604;28;20184;-57
2021/07/31 05:16:59;;;;;;;4.05;2.78;;;16.60;99.90;;;;;;5091987;27;22500;-56
2021/07/31 05:19:24;;;;;;;3.23;2.93;;;17.40;99.90;;;;;;5074464;28;20205;-57
2021/07/31 05:21:54;;;;;;;5.10;2.80;;;17.40;99.90;;;;;;5078252;28;20184;-56
2021/07/31 05:24:19;;;;;;;4.15;3.00;;;17.40;99.90;;;;;;5078743;28;20235;-57
2021/07/31 05:26:45;;;;;;;5.43;2.73;;;17.40;99.90;;;;;;5075573;28;20705;-56
2021/07/31 05:29:11;;;;;;;3.87;3.30;;;17.10;99.90;;;;;;5074040;28;20679;-58
2021/07/31 05:31:36;;;;;;;5.37;2.97;;;17.30;99.90;;;;;;5066667;28;20187;-59
2021/07/31 05:34:02;;;;;;;5.77;2.90;;;17.30;99.90;;;;;;5079889;28;20184;-57
2021/07/31 05:36:30;;;;;;;3.25;3.05;;;17.40;99.90;;;;;;5076592;28;20231;-56
2021/07/31 05:38:56;;;;;;;4.00;2.97;;;17.50;99.90;;;;;;5079579;28;20182;-55
2021/07/31 05:41:21;;;;;;;5.47;3.30;;;17.60;99.90;;;;;;5100393;28;20184;-55
2021/07/31 05:43:47;;;;;;;3.40;2.47;;;17.50;99.90;;;;;;5073121;28;20611;-55
2021/07/31 05:46:19;;;;;;;2.83;2.53;;;17.70;99.90;;;;;;5069790;28;20666;-55
2021/07/31 05:48:46;;;;;;;6.05;2.50;;;17.80;99.90;;;;;;5070367;28;20242;-55
2021/07/31 05:51:12;;;;;;;2.35;2.08;;;18.00;99.90;;;;;;5074880;28;20689;-57
2021/07/31 05:53:38;;;;;;;4.82;2.20;;;18.10;99.90;;;;;;5076645;28;20219;-57
2021/07/31 05:56:14;;;;;;;4.57;2.93;;;18.20;99.90;;;;;;5077568;28;20223;-57
2021/07/31 05:58:40;;;;;;;9.48;2.63;;;18.50;99.90;;;;;;5074994;28;20776;-57
2021/07/31 06:01:09;;;;;;;2.13;1.93;;;18.80;99.90;;;;;;5076460;28;20184;-57
2021/07/31 06:03:36;;;;;;;4.10;2.10;;;19.10;99.90;;;;;;5078908;28;20579;-57
2021/07/31 06:06:02;;;;;;;2.58;2.38;;;19.30;99.90;;;;;;5075587;28;20220;-56
2021/07/31 06:08:28;;;;;;;2.60;2.30;;;19.40;99.90;;;;;;5076633;28;20194;-56
2021/07/31 06:11:01;;;;;;;3.47;2.40;;;19.50;99.90;;;;;;5072602;28;20442;-59
2021/07/31 06:13:27;;;;;;;5.03;2.85;;;19.50;99.90;;;;;;5074955;28;20181;-55
2021/07/31 06:15:53;;;;;;;3.15;2.28;;;19.50;99.90;;;;;;5075091;28;20360;-56
2021/07/31 06:18:19;;;;;;;3.35;2.00;;;19.50;99.90;;;;;;5056212;28;20187;-56
2021/07/31 06:20:45;;;;;;;2.40;2.10;;;19.60;99.90;;;;;;5063835;28;20562;-56
2021/07/31 06:23:10;;;;;;;10.03;2.63;;;19.70;99.90;;;;;;5060086;28;20188;-56
2021/07/31 06:25:36;;;;;;;2.77;2.33;;;19.70;99.90;;;;;;5061154;28;20218;-57
2021/07/31 06:28:02;;;;;;;4.57;2.43;;;19.60;99.90;;;;;;5064441;28;20731;-57
2021/07/31 06:30:27;;;;;;;3.97;1.90;;;19.70;99.90;;;;;;5061597;28;20184;-58
2021/07/31 06:32:53;;;;;;;3.33;2.30;;;19.80;99.90;;;;;;5063882;28;20184;-57
2021/07/31 06:35:18;;;;;;;3.53;2.53;;;19.70;99.90;;;;;;5065867;28;20201;-57
2021/07/31 06:37:44;;;;;;;4.10;2.40;;;19.90;99.90;;;;;;5063277;28;20185;-54
2021/07/31 06:40:10;;;;;;;3.23;2.00;;;19.90;99.90;;;;;;5057396;28;20182;-54
2021/07/31 06:42:36;;;;;;;2.05;1.83;;;20.10;99.80;;;;;;5060579;28;20215;-54
2021/07/31 06:45:02;;;;;;;2.63;1.83;;;20.20;99.70;;;;;;5062632;28;20611;-55
2021/07/31 06:47:27;;;;;;;3.67;2.47;;;20.20;99.50;;;;;;5081832;28;20181;-55
2021/07/31 06:49:53;;;;;;;4.00;2.30;;;20.40;99.50;;;;;;5052746;28;20296;-54
2021/07/31 06:52:19;;;;;;;4.30;2.00;;;20.60;98.20;;;;;;5059775;28;20185;-55
2021/07/31 06:54:44;;;;;;;2.63;2.27;;;20.70;97.70;;;;;;5063439;28;20694;-54
2021/07/31 06:57:10;;;;;;;2.60;2.03;;;20.70;97.80;;;;;;5060470;28;20212;-54
2021/07/31 06:59:36;;;;;;;4.40;2.10;;;20.70;97.60;;;;;;5060651;28;20263;-55
2021/07/31 07:02:02;;;;;;;4.78;2.58;;;21.00;95.70;;;;;;5056942;28;20440;-54
2021/07/31 07:04:28;;;;;;;4.00;1.67;;;21.40;95.70;;;;;;5063877;28;20655;-54
2021/07/31 07:06:53;;;;;;;2.90;1.97;;;21.80;94.00;;;;;;5067948;28;20474;-55
2021/07/31 07:09:19;;;;;;;2.90;1.83;;;21.90;93.90;;;;;;5052484;28;20564;-55
2021/07/31 07:11:45;;;;;;;4.23;1.90;;;22.30;93.30;;;;;;5075958;28;20662;-55
2021/07/31 07:14:13;;;;;;;2.87;1.57;;;23.40;91.60;;;;;;5052408;28;20185;-55
2021/07/31 07:16:39;;;;;;;2.23;1.50;;;24.60;87.70;;;;;;5058231;28;20246;-55
2021/07/31 07:19:08;;;;;;;4.77;1.67;;;26.40;83.40;;;;;;5065879;28;20508;-55
2021/07/31 07:21:34;;;;;;;3.30;1.90;;;28.40;73.20;;;;;;5064708;28;20241;-56
2021/07/31 07:23:59;;;;;;;3.17;1.70;;;29.80;66.20;;;;;;5061652;28;20964;-55
2021/07/31 07:26:25;;;;;;;4.57;2.43;;;31.40;60.20;;;;;;5059564;28;20765;-55
2021/07/31 07:28:51;;;;;;;2.13;1.67;;;32.00;57.10;;;;;;5055709;28;20177;-55
2021/07/31 07:31:16;;;;;;;3.43;2.10;;;32.10;56.00;;;;;;5049127;28;20181;-55
2021/07/31 07:33:42;;;;;;;2.37;2.10;;;33.20;53.40;;;;;;5051480;28;20556;-55
2021/07/31 07:36:15;;;;;;;2.53;1.60;;;32.40;52.80;;;;;;5056731;28;20208;-56
2021/07/31 07:38:41;;;;;;;3.13;2.27;;;32.30;54.30;;;;;;5083499;28;20349;-56
2021/07/31 07:41:11;;;;;;;3.07;1.80;;;33.40;51.80;;;;;;5063984;28;20461;-55
2021/07/31 07:43:37;;;;;;;1.70;1.60;;;33.20;50.90;;;;;;5049480;28;20192;-55
2021/07/31 07:46:03;;;;;;;2.70;1.83;;;32.40;52.10;;;;;;5055593;28;20467;-55
2021/07/31 07:48:29;;;;;;;2.60;1.80;;;32.10;52.40;;;;;;5058316;28;20181;-55
2021/07/31 07:50:55;;;;;;;3.20;2.30;;;32.20;52.60;;;;;;5070845;28;20434;-55
2021/07/31 07:53:20;;;;;;;2.50;1.70;;;31.70;51.80;;;;;;5060811;28;20196;-55
2021/07/31 07:55:46;;;;;;;3.47;2.10;;;30.80;54.10;;;;;;5060213;28;20231;-55
2021/07/31 07:58:12;;;;;;;3.23;1.90;;;30.60;55.10;;;;;;5058455;28;20196;-56
2021/07/31 08:00:38;;;;;;;5.30;2.00;;;31.20;53.50;;;;;;5049632;28;20440;-55
2021/07/31 08:03:07;;;;;;;2.90;1.57;;;31.30;51.70;;;;;;5048634;28;20555;-55
2021/07/31 08:05:33;;;;;;;1.90;1.40;;;31.40;51.50;;;;;;5057745;28;20241;-55
2021/07/31 08:07:58;;;;;;;2.10;1.80;;;32.10;50.00;;;;;;5059302;28;20468;-55
2021/07/31 08:10:24;;;;;;;1.40;1.30;;;33.00;49.70;;;;;;5055730;28;20491;-55
2021/07/31 08:12:50;;;;;;;2.13;1.80;;;32.70;49.20;;;;;;5052435;28;20307;-55
2021/07/31 08:15:15;;;;;;;2.10;1.77;;;32.60;49.70;;;;;;5049548;28;20259;-55
2021/07/31 08:17:41;;;;;;;1.73;1.30;;;32.40;49.10;;;;;;5078254;28;20190;-55
2021/07/31 08:20:07;;;;;;;3.20;1.70;;;32.20;49.30;;;;;;5066923;28;20953;-56
2021/07/31 08:22:33;;;;;;;2.63;2.30;;;31.70;50.00;;;;;;5065641;28;20910;-55
2021/07/31 08:25:00;;;;;;;1.83;1.63;;;31.50;50.00;;;;;;5059409;28;20987;-56
2021/07/31 08:27:26;;;;;;;8.93;1.87;;;31.80;50.00;;;;;;5060966;28;20979;-56
2021/07/31 08:29:52;;;;;;;6.97;2.83;;;32.00;49.90;;;;;;5052302;28;20446;-55
2021/07/31 08:32:17;;;;;;;5.57;2.00;;;32.40;49.00;;;;;;5048466;28;20435;-55
2021/07/31 08:34:43;;;;;;;4.03;2.20;;;33.20;47.70;;;;;;5053094;28;20276;-56
2021/07/31 08:37:10;;;;;;;1.97;1.60;;;33.70;46.70;;;;;;5051530;28;20205;-55
2021/07/31 08:39:37;;;;;;;3.60;1.97;;;33.30;47.40;;;;;;5054961;28;20181;-55
2021/07/31 08:42:05;;;;;;;3.90;2.13;;;33.40;47.20;;;;;;5051874;28;20439;-54
2021/07/31 08:44:35;;;;;;;3.00;1.60;;;32.70;48.10;;;;;;5058618;28;20443;-55
2021/07/31 08:47:03;;;;;;;1.80;1.70;;;32.50;48.30;;;;;;5056446;28;20510;-56
2021/07/31 08:49:30;;;;;;;2.70;1.70;;;31.90;49.00;;;;;;5048903;28;20585;-55
2021/07/31 08:51:57;;;;;;;3.43;3.13;;;31.10;49.70;;;;;;5050070;28;20440;-56
2021/07/31 08:54:23;;;;;;;2.90;2.03;;;31.20;50.30;;;;;;5048315;28;20436;-54
2021/07/31 08:56:49;;;;;;;3.60;2.90;;;31.80;49.40;;;;;;5054263;28;20464;-55
2021/07/31 08:59:17;;;;;;;4.57;3.57;;;31.70;49.00;;;;;;5057870;28;20180;-55
2021/07/31 09:01:43;;;;;;;3.27;2.07;;;31.30;49.80;;;;;;5054568;28;20580;-53
2021/07/31 09:04:15;;;;;;;2.47;2.23;;;30.00;51.20;;;;;;5053838;28;20436;-56
2021/07/31 09:06:42;;;;;;;2.17;2.00;;;29.10;52.90;;;;;;5048792;28;20476;-54
2021/07/31 09:09:08;;;;;;;3.50;3.20;;;28.50;54.60;;;;;;5052986;28;20438;-56
2021/07/31 09:11:34;;;;;;;3.00;2.30;;;28.90;55.00;;;;;;5049378;28;20801;-56
2021/07/31 09:14:14;;;;;;;3.80;2.30;;;29.40;53.60;;;;;;5059861;28;20430;-54
2021/07/31 09:16:42;;;;;;;4.00;2.60;;;30.40;52.00;;;;;;5054386;28;20519;-54
2021/07/31 09:19:09;;;;;;;2.23;1.70;;;30.60;50.70;;;;;;5062786;28;20447;-55
2021/07/31 09:21:35;;;;;;;2.33;2.10;;;30.50;50.70;;;;;;5056043;28;20515;-55
2021/07/31 09:24:02;;;;;;;4.13;1.83;;;30.20;51.50;;;;;;5080261;28;20449;-56
2021/07/31 09:26:35;;;;;;;3.07;2.00;;;29.70;52.90;;;;;;5061091;28;20473;-56
2021/07/31 09:29:09;;;;;;;3.57;2.07;;;30.40;52.60;;;;;;5053042;28;20432;-54
2021/07/31 09:31:54;;;;;;;2.40;2.17;;;30.70;52.20;;;;;;5057385;28;20431;-53
2021/07/31 09:34:46;;;;;;;2.50;1.63;;;31.40;50.10;;;;;;5057977;28;20956;-55
2021/07/31 09:37:28;;;;;;;4.17;3.30;;;31.80;49.00;;;;;;5053506;28;20456;-55
2021/07/31 09:40:00;;;;;;;2.97;2.23;;;32.50;48.80;;;;;;5051710;28;20652;-55
2021/07/31 09:42:39;;;;;;;2.83;2.57;;;33.00;47.90;;;;;;5067813;28;20979;-55
2021/07/31 09:45:11;;;;;;;2.47;1.90;;;32.60;48.50;;;;;;5057770;28;20466;-55
2021/07/31 09:47:39;;;;;;;3.60;2.53;;;32.70;48.50;;;;;;5048716;28;20443;-56
2021/07/31 09:50:08;;;;;;;3.27;2.23;;;33.50;46.70;;;;;;5054049;28;20436;-55
2021/07/31 09:52:33;;;;;;;3.13;2.53;;;33.20;47.00;;;;;;5055525;28;21021;-55
2021/07/31 09:54:59;;;;;;;4.53;2.70;;;32.60;47.80;;;;;;5059825;28;20447;-55
2021/07/31 09:57:29;;;;;;;2.13;1.50;;;31.10;49.80;;;;;;5050336;28;20437;-55
2021/07/31 10:00:00;;;;;;;2.20;2.00;;;31.00;50.30;;;;;;5050356;28;20513;-58
2021/07/31 10:02:27;;;;;;;2.00;1.60;;;31.10;50.60;;;;;;5053269;28;20443;-56
2021/07/31 10:04:53;;;;;;;2.40;1.87;;;31.50;48.20;;;;;;5066385;28;20465;-55
2021/07/31 10:07:20;;;;;;;2.20;1.70;;;31.30;49.20;;;;;;5058129;28;20879;-55
2021/07/31 10:09:49;;;;;;;2.87;2.07;;;31.40;49.00;;;;;;5063481;28;20481;-55
2021/07/31 10:12:17;;;;;;;1.80;1.70;;;30.90;50.30;;;;;;5084721;28;20509;-55
2021/07/31 10:14:44;;;;;;;3.90;1.90;;;31.20;50.50;;;;;;5064765;28;20442;-55
2021/07/31 10:17:12;;;;;;;4.00;1.90;;;31.30;48.40;;;;;;5056328;28;20487;-55
2021/07/31 10:19:46;;;;;;;2.47;2.27;;;32.40;46.30;;;;;;5068003;28;20609;-55
2021/07/31 10:22:14;;;;;;;2.67;1.77;;;32.30;46.60;;;;;;5056200;28;20432;-55
2021/07/31 10:25:02;;;;;;;3.20;2.10;;;32.20;46.70;;;;;;5055784;28;20834;-55
2021/07/31 10:27:28;;;;;;;2.70;1.87;;;31.30;47.20;;;;;;5054031;28;20435;-55
2021/07/31 10:29:55;;;;;;;1.60;1.50;;;30.20;48.90;;;;;;5050628;28;20599;-54
2021/07/31 10:32:40;;;;;;;3.33;2.13;;;29.50;50.60;;;;;;5051401;28;20192;-55
2021/07/31 10:35:08;;;;;;;3.80;2.17;;;28.70;51.70;;;;;;5067128;28;21249;-57
2021/07/31 10:37:34;;;;;;;2.17;1.40;;;28.30;52.10;;;;;;5067069;28;20900;-56
2021/07/31 10:39:59;;;;;;;1.90;1.50;;;28.60;52.10;;;;;;5066417;28;20477;-55
2021/07/31 10:42:26;;;;;;;2.20;2.00;;;28.30;53.20;;;;;;5067146;28;20243;-55
2021/07/31 10:45:16;;;;;;;1.83;1.57;;;28.10;52.40;;;;;;5069001;28;20214;-55
2021/07/31 10:47:46;;;;;;;2.93;2.40;;;27.80;52.60;;;;;;5063098;28;20785;-55
2021/07/31 10:50:25;;;;;;;2.27;1.70;;;27.70;53.20;;;;;;5060032;28;20519;-56
2021/07/31 10:53:11;;;;;;;2.83;2.27;;;27.60;53.20;;;;;;5055069;28;20421;-55
2021/07/31 10:55:36;;;;;;;2.17;1.97;;;27.60;53.70;;;;;;5060097;28;20458;-56
2021/07/31 10:58:11;;;;;;;3.23;1.67;;;27.60;52.90;;;;;;5062897;28;20524;-54
2021/07/31 11:00:38;;;;;;;1.90;1.50;;;27.60;53.40;;;;;;5059334;28;20209;-55
2021/07/31 11:03:24;;;;;;;1.80;1.70;;;27.30;53.50;;;;;;5085930;28;20464;-58
2021/07/31 11:06:00;;;;;;;4.83;1.77;;;27.00;54.80;;;;;;5049625;28;20486;-55
2021/07/31 11:08:28;;;;;;;2.30;1.77;;;27.10;54.50;;;;;;5050576;28;20450;-55
2021/07/31 11:10:59;;;;;;;3.47;1.87;;;27.40;54.00;;;;;;5058736;28;20452;-55
2021/07/31 11:13:28;;;;;;;1.80;1.70;;;28.20;52.10;;;;;;5055172;28;20940;-55
2021/07/31 11:16:03;;;;;;;2.57;1.50;;;28.60;50.90;;;;;;5058218;28;21057;-55
2021/07/31 11:18:35;;;;;;;2.50;1.83;;;29.30;50.60;;;;;;5082633;28;20440;-56
2021/07/31 11:21:10;;;;;;;2.90;1.67;;;30.70;48.10;;;;;;5057460;28;20446;-55
2021/07/31 11:23:54;;;;;;;2.30;1.73;;;31.40;46.40;;;;;;5057231;28;20431;-55
2021/07/31 11:26:34;;;;;;;1.77;1.50;;;31.90;45.30;;;;;;5061270;28;20463;-56
2021/07/31 11:29:01;;;;;;;2.53;2.33;;;32.40;45.00;;;;;;5063595;28;20423;-55
2021/07/31 11:31:27;;;;;;;1.70;1.60;;;33.00;43.90;;;;;;5054499;28;20818;-55
2021/07/31 11:34:06;;;;;;;2.20;2.00;;;33.20;43.20;;;;;;5058894;28;20423;-57
2021/07/31 11:36:32;;;;;;;1.73;1.63;;;33.10;43.10;;;;;;5075716;28;20220;-57
2021/07/31 11:38:59;;;;;;;2.40;1.70;;;32.00;44.10;;;;;;5062298;28;20487;-57
2021/07/31 11:41:25;;;;;;;2.07;1.83;;;31.80;45.10;;;;;;5060114;28;20443;-56
2021/07/31 11:43:58;;;;;;;3.80;2.10;;;31.70;44.80;;;;;;5066955;28;20448;-60
2021/07/31 11:46:31;;;;;;;2.07;1.90;;;31.70;44.90;;;;;;5065701;28;20216;-58
2021/07/31 11:48:58;;;;;;;3.57;2.37;;;31.30;46.00;;;;;;5063841;28;20465;-58
2021/07/31 11:51:25;;;;;;;2.43;2.00;;;31.80;46.20;;;;;;5053941;28;20442;-58
2021/07/31 11:53:51;;;;;;;2.90;1.60;;;31.30;45.20;;;;;;5057337;28;20457;-58
2021/07/31 11:56:24;;;;;;;2.50;2.13;;;30.80;45.60;;;;;;5061685;28;21158;-59
2021/07/31 11:58:54;;;;;;;2.30;1.90;;;30.10;46.30;;;;;;5062813;28;20177;-59
2021/07/31 12:01:20;;;;;;;2.33;1.43;;;29.50;48.00;;;;;;5059665;28;20542;-58
2021/07/31 12:03:51;;;;;;;3.20;2.00;;;28.80;48.30;;;;;;5065981;28;20441;-59
2021/07/31 12:06:38;;;;;;;2.47;1.50;;;28.60;49.30;;;;;;5057502;28;20551;-58
2021/07/31 12:09:20;;;;;;;4.23;1.90;;;28.10;49.50;;;;;;5051215;28;20852;-58
2021/07/31 12:11:47;;;;;;;1.97;1.57;;;28.10;50.00;;;;;;5049004;28;20424;-56
2021/07/31 12:14:32;;;;;;;1.70;1.60;;;28.10;50.20;;;;;;5057674;28;20420;-58
2021/07/31 12:17:13;;;;;;;2.60;2.40;;;28.00;50.10;;;;;;5065105;28;20461;-56
2021/07/31 12:19:43;;;;;;;2.43;1.67;;;28.10;51.00;;;;;;5059534;28;20548;-59
2021/07/31 12:22:10;;;;;;;2.00;1.80;;;27.80;50.80;;;;;;5061381;28;20431;-58
2021/07/31 12:24:37;;;;;;;2.83;2.10;;;27.40;51.60;;;;;;5061989;28;20438;-58
2021/07/31 12:27:02;;;;;;;2.20;1.80;;;27.40;53.20;;;;;;5053764;28;20617;-57
2021/07/31 12:29:41;;;;;;;2.33;2.13;;;27.40;53.50;;;;;;5052669;28;20469;-58
2021/07/31 12:32:26;;;;;;;3.97;1.93;;;27.30;53.10;;;;;;5076489;28;21106;-58
2021/07/31 12:34:53;;;;;;;2.50;1.63;;;27.20;52.90;;;;;;5067929;28;20555;-59
2021/07/31 12:37:20;;;;;;;1.90;1.80;;;27.00;54.10;;;;;;5060507;28;20442;-59
2021/07/31 12:39:46;;;;;;;2.60;2.00;;;27.00;54.50;;;;;;5055779;28;20621;-58
2021/07/31 12:42:17;;;;;;;2.07;1.87;;;27.00;54.10;;;;;;5054564;28;20440;-58
2021/07/31 12:44:43;;;;;;;1.93;1.70;;;27.00;54.90;;;;;;5055461;28;20979;-58
2021/07/31 12:47:12;;;;;;;3.10;1.77;;;27.10;54.10;;;;;;5056332;28;20458;-57
2021/07/31 12:49:38;;;;;;;7.10;6.07;;;26.70;54.20;;;;;;5057317;28;20427;-58
2021/07/31 12:52:06;;;;;;;2.70;2.03;;;26.80;54.90;;;;;;5057184;28;20435;-58
2021/07/31 12:54:32;;;;;;;1.93;1.60;;;26.60;55.70;;;;;;5061424;28;20492;-57
2021/07/31 12:56:58;;;;;;;3.20;2.20;;;26.60;55.20;;;;;;5060542;28;20482;-57
2021/07/31 12:59:24;;;;;;;3.63;2.20;;;26.50;55.70;;;;;;5063755;28;20913;-57